createdAt,value
2023-01-31T00:00:24.582Z,3.64
2023-01-31T00:05:56.028Z,3.55
2023-01-31T00:11:28.034Z,3.52
2023-01-31T00:16:59.515Z,3.39
2023-01-31T00:22:31.240Z,3.37
2023-01-31T00:28:02.961Z,3.34
2023-01-31T00:33:35.064Z,3.39
2023-01-31T00:39:06.406Z,3.41
2023-01-31T00:44:38.259Z,3.34
2023-01-31T00:50:09.843Z,3.4
2023-01-31T00:55:41.570Z,3.34
2023-01-31T01:01:19.827Z,3.47
2023-01-31T01:06:51.632Z,3.29
2023-01-31T01:12:23.267Z,3.34
2023-01-31T01:17:54.826Z,3.54
2023-01-31T01:23:26.560Z,3.37
2023-01-31T01:28:58.409Z,3.47
2023-01-31T01:34:30.545Z,3.57
2023-01-31T01:40:01.734Z,3.52
2023-01-31T01:45:33.497Z,3.56
2023-01-31T01:51:05.164Z,3.68
2023-01-31T01:56:37.054Z,3.63
2023-01-31T02:02:13.075Z,3.71
2023-01-31T02:07:45.249Z,3.7
2023-01-31T02:13:16.442Z,3.42
2023-01-31T02:18:48.283Z,3.41
2023-01-31T02:24:19.856Z,3.43
2023-01-31T02:29:52.051Z,3.6
2023-01-31T02:35:23.721Z,3.75
2023-01-31T02:40:55.089Z,4.07
2023-01-31T02:46:26.851Z,3.92
2023-01-31T02:51:59.015Z,3.94
2023-01-31T02:57:30.476Z,3.67
2023-01-31T03:03:09.147Z,3.57
2023-01-31T03:08:40.182Z,3.62
2023-01-31T03:14:12.430Z,3.6
2023-01-31T03:19:43.783Z,3.48
2023-01-31T03:25:15.507Z,3.49
2023-01-31T03:30:47.141Z,3.71
2023-01-31T03:36:19.013Z,3.67
2023-01-31T03:41:50.772Z,3.81
2023-01-31T03:47:22.270Z,4.08
2023-01-31T03:52:53.951Z,3.75
2023-01-31T03:58:25.651Z,3.68
2023-01-31T04:04:01.783Z,3.66
2023-01-31T04:09:33.637Z,3.66
2023-01-31T04:15:05.240Z,3.62
2023-01-31T04:20:36.970Z,3.54
2023-01-31T04:26:09.054Z,3.65
2023-01-31T04:31:40.698Z,3.58
2023-01-31T04:37:12.302Z,3.23
2023-01-31T04:42:44.053Z,3.36
2023-01-31T04:48:15.562Z,3.2
2023-01-31T04:53:47.464Z,3.32
2023-01-31T04:59:19.242Z,3.34
2023-01-31T05:04:55.169Z,3.45
2023-01-31T05:10:26.896Z,3.3
2023-01-31T05:15:58.643Z,3.21
2023-01-31T05:21:31.465Z,3.28
2023-01-31T05:27:02.227Z,3.3
2023-01-31T05:32:33.804Z,3.14
2023-01-31T05:38:06.017Z,3.04
2023-01-31T05:43:37.391Z,3.04
2023-01-31T05:49:08.940Z,3.09
2023-01-31T05:54:40.644Z,2.79
2023-01-31T06:00:12.563Z,2.83
2023-01-31T06:05:48.534Z,2.65
2023-01-31T06:11:20.344Z,2.36
2023-01-31T06:16:51.994Z,2.4
2023-01-31T06:22:23.743Z,2.31
2023-01-31T06:27:55.568Z,2.38
2023-01-31T06:33:38.361Z,2.32
2023-01-31T06:38:58.893Z,2.31
2023-01-31T06:44:30.591Z,2.36
2023-01-31T06:50:02.331Z,2.43
2023-01-31T06:55:34.672Z,2.36
2023-01-31T07:01:05.947Z,2.37
2023-01-31T07:06:42.067Z,2.46
2023-01-31T07:12:13.669Z,2.46
2023-01-31T07:17:45.356Z,2.41
2023-01-31T07:23:17.108Z,2.5
2023-01-31T07:28:48.830Z,2.42
2023-01-31T07:34:20.780Z,2.44
2023-01-31T07:39:52.327Z,2.39
2023-01-31T07:45:24.170Z,2.42
2023-01-31T07:50:55.769Z,2.5
2023-01-31T07:56:27.649Z,2.63
2023-01-31T08:01:59.311Z,2.63
2023-01-31T08:07:39.520Z,2.67
2023-01-31T08:13:11.344Z,2.71
2023-01-31T08:18:42.827Z,2.95
2023-01-31T08:24:14.759Z,3.14
2023-01-31T08:29:46.386Z,3.17
2023-01-31T08:35:18.297Z,3.25
2023-01-31T08:40:49.747Z,3.29
2023-01-31T08:46:21.488Z,3.4
2023-01-31T08:51:53.346Z,3.43
2023-01-31T08:57:25.137Z,3.76
2023-01-31T09:02:56.744Z,3.78
2023-01-31T09:08:35.179Z,4.0
2023-01-31T09:14:06.717Z,4.25
2023-01-31T09:19:38.759Z,4.33
2023-01-31T09:25:10.215Z,4.3
2023-01-31T09:30:41.874Z,4.45
2023-01-31T09:36:13.375Z,4.73
2023-01-31T09:41:45.772Z,4.69
2023-01-31T09:47:17.045Z,4.71
2023-01-31T09:52:48.568Z,4.75
2023-01-31T09:58:20.700Z,4.79
2023-01-31T10:03:52.326Z,4.96
2023-01-31T10:09:30.694Z,4.92
2023-01-31T10:15:01.910Z,4.95
2023-01-31T10:20:33.731Z,4.98
2023-01-31T10:26:05.511Z,4.94
2023-01-31T10:31:37.299Z,5.21
2023-01-31T10:37:08.967Z,5.2
2023-01-31T10:42:40.942Z,5.34
2023-01-31T10:48:12.556Z,5.34
2023-01-31T10:53:44.961Z,5.16
2023-01-31T10:59:15.698Z,5.4
2023-01-31T11:04:47.402Z,5.36
2023-01-31T11:10:23.735Z,5.54
2023-01-31T11:15:55.709Z,5.42
2023-01-31T11:21:27.167Z,5.76
2023-01-31T11:26:58.628Z,5.59
2023-01-31T11:32:30.670Z,5.59
2023-01-31T11:38:02.131Z,5.54
2023-01-31T11:43:34.107Z,5.8
2023-01-31T11:49:05.660Z,5.73
2023-01-31T11:54:37.756Z,5.63
2023-01-31T12:00:09.043Z,5.75
2023-01-31T12:05:40.709Z,5.64
2023-01-31T12:11:19.062Z,5.7
2023-01-31T12:16:50.821Z,5.79
2023-01-31T12:22:22.807Z,5.77
2023-01-31T12:27:54.129Z,5.71
2023-01-31T12:33:25.873Z,5.88
2023-01-31T12:38:57.536Z,6.04
2023-01-31T12:44:29.575Z,5.6
2023-01-31T12:50:00.983Z,5.62
2023-01-31T12:55:32.936Z,5.53
2023-01-31T13:01:04.496Z,5.49
2023-01-31T13:06:36.330Z,5.56
2023-01-31T13:12:14.501Z,5.47
2023-01-31T13:17:46.091Z,5.55
2023-01-31T13:23:17.840Z,5.39
2023-01-31T13:28:49.621Z,5.47
2023-01-31T13:34:21.323Z,5.49
2023-01-31T13:39:53.004Z,5.54
2023-01-31T13:45:24.719Z,5.39
2023-01-31T13:50:56.552Z,5.6
2023-01-31T13:56:28.046Z,5.73
2023-01-31T14:01:59.897Z,5.67
2023-01-31T14:07:31.789Z,5.6
2023-01-31T14:13:07.735Z,5.62
2023-01-31T14:18:39.355Z,5.51
2023-01-31T14:24:11.088Z,5.73
2023-01-31T14:29:43.100Z,5.69
2023-01-31T14:35:14.523Z,5.61
2023-01-31T14:40:46.279Z,5.62
2023-01-31T14:46:18.419Z,5.53
2023-01-31T14:51:49.734Z,5.54
2023-01-31T14:57:21.623Z,5.43
2023-01-31T15:02:53.336Z,5.58
2023-01-31T15:08:24.962Z,5.57
2023-01-31T15:14:01.690Z,5.48
2023-01-31T15:19:32.788Z,5.6
2023-01-31T15:25:05.484Z,5.66
2023-01-31T15:30:37.401Z,5.7
2023-01-31T15:36:09.311Z,5.67
2023-01-31T15:41:40.658Z,5.56
2023-01-31T15:47:12.620Z,5.67
2023-01-31T15:52:44.190Z,5.68
2023-01-31T15:58:16.000Z,5.67
2023-01-31T16:03:47.527Z,5.44
2023-01-31T16:09:19.229Z,5.53
2023-01-31T16:14:55.353Z,5.56
2023-01-31T16:20:27.545Z,5.55
2023-01-31T16:25:58.778Z,5.54
2023-01-31T16:31:30.772Z,5.55
2023-01-31T16:37:02.273Z,5.56
2023-01-31T16:42:33.949Z,5.5
2023-01-31T16:48:05.734Z,5.6
2023-01-31T16:53:37.625Z,5.62
2023-01-31T16:59:10.201Z,5.64
2023-01-31T17:04:41.655Z,5.72
2023-01-31T17:10:13.378Z,5.65
2023-01-31T17:15:49.690Z,5.64
2023-01-31T17:21:21.275Z,5.61
2023-01-31T17:26:54.037Z,5.48
2023-01-31T17:32:24.868Z,5.46
2023-01-31T17:37:56.668Z,5.61
2023-01-31T17:43:28.212Z,5.54
2023-01-31T17:48:59.932Z,5.58
2023-01-31T17:54:31.617Z,5.58
2023-01-31T18:00:03.371Z,5.55
2023-01-31T18:05:39.094Z,5.56
2023-01-31T18:11:06.845Z,5.32
2023-01-31T18:16:42.966Z,5.41
2023-01-31T18:22:14.954Z,5.31
2023-01-31T18:27:46.598Z,5.32
2023-01-31T18:33:18.273Z,5.27
2023-01-31T18:38:50.029Z,5.25
2023-01-31T18:44:21.738Z,5.29
2023-01-31T18:49:53.528Z,5.31
2023-01-31T18:55:25.160Z,5.28
2023-01-31T19:00:57.181Z,5.26
2023-01-31T19:06:28.593Z,5.26
2023-01-31T19:12:00.373Z,5.32
2023-01-31T19:17:38.491Z,5.3
2023-01-31T19:23:10.463Z,5.34
2023-01-31T19:28:42.066Z,5.29
2023-01-31T19:34:13.810Z,5.36
2023-01-31T19:39:45.373Z,5.46
2023-01-31T19:45:18.312Z,5.33
2023-01-31T19:50:48.875Z,5.26
2023-01-31T19:56:20.608Z,5.26
2023-01-31T20:01:52.694Z,5.3
2023-01-31T20:07:24.019Z,5.35
2023-01-31T20:12:55.991Z,5.5
2023-01-31T20:18:32.056Z,5.7
2023-01-31T20:24:04.334Z,5.55
2023-01-31T20:29:35.667Z,5.61
2023-01-31T20:35:07.134Z,5.81
2023-01-31T20:40:38.868Z,5.97
2023-01-31T20:46:10.828Z,5.7
2023-01-31T20:51:42.928Z,5.86
2023-01-31T20:57:14.244Z,5.94
2023-01-31T21:02:45.744Z,5.67
2023-01-31T21:08:17.757Z,5.84
2023-01-31T21:13:49.328Z,5.63
2023-01-31T21:19:25.299Z,5.64
2023-01-31T21:24:57.015Z,5.38
2023-01-31T21:30:28.971Z,5.47
2023-01-31T21:36:00.845Z,5.47
2023-01-31T21:41:32.160Z,5.39
2023-01-31T21:47:04.223Z,5.16
2023-01-31T21:52:35.804Z,5.2
2023-01-31T21:58:07.318Z,5.04
2023-01-31T22:03:39.543Z,5.24
2023-01-31T22:09:10.770Z,5.25
2023-01-31T22:14:42.640Z,5.15
2023-01-31T22:20:18.993Z,5.08
2023-01-31T22:25:50.500Z,5.15
2023-01-31T22:31:22.284Z,5.23
2023-01-31T22:36:54.097Z,5.19
2023-01-31T22:42:25.549Z,5.3
2023-01-31T22:47:57.286Z,5.17
2023-01-31T22:53:29.303Z,5.18
2023-01-31T22:59:00.775Z,5.09
2023-01-31T23:04:32.501Z,4.83
2023-01-31T23:10:04.236Z,4.88
2023-01-31T23:15:36.219Z,4.99
2023-01-31T23:21:12.234Z,4.9
2023-01-31T23:26:44.055Z,4.92
2023-01-31T23:32:15.467Z,4.98
2023-01-31T23:37:47.598Z,5.24
2023-01-31T23:43:18.853Z,5.0
2023-01-31T23:48:50.627Z,4.75
2023-01-31T23:54:22.555Z,4.76
2023-01-31T23:59:54.017Z,4.89
